Time;durP1;ratioP1;P1;durP2;ratioP2;P2;SDS_P1;SDS_P2;PMS_P1;PMS_P2;Temp;Humidity;BMP_temperature;BMP_pressure;BME280_temperature;BME280_humidity;BME280_pressure;Samples;Min_cycle;Max_cycle;Signal;HPM_P1;HPM_P2
2023/05/09 00:01:55;;;;;;;5.00;4.70;;;21.80;64.10;22.60;100971.00;;;;5028924;28;20349;-55
2023/05/09 00:04:21;;;;;;;5.67;5.00;;;21.80;64.10;22.60;100967.00;;;;5026987;28;20207;-56
2023/05/09 00:06:47;;;;;;;5.30;4.90;;;21.80;64.20;22.60;100958.00;;;;5028857;28;20241;-54
2023/05/09 00:09:12;;;;;;;5.23;4.83;;;21.80;64.10;22.60;100956.00;;;;5021163;28;20202;-56
2023/05/09 00:11:38;;;;;;;5.80;5.30;;;21.80;65.00;22.50;100957.00;;;;5027996;28;20205;-57
2023/05/09 00:14:04;;;;;;;5.50;5.10;;;21.80;64.10;22.50;100950.00;;;;5028473;28;20202;-56
2023/05/09 00:16:31;;;;;;;5.63;5.17;;;21.80;64.30;22.50;100940.00;;;;5029012;28;20167;-56
2023/05/09 00:18:58;;;;;;;5.53;5.13;;;21.90;64.30;22.50;100940.00;;;;5027929;28;20203;-56
2023/05/09 00:21:23;;;;;;;5.63;5.13;;;21.80;64.10;22.50;100949.00;;;;5033931;28;20186;-53
2023/05/09 00:23:49;;;;;;;5.70;5.30;;;21.70;64.10;22.50;100945.00;;;;5041949;28;20182;-56
2023/05/09 00:26:15;;;;;;;5.40;5.00;;;21.80;64.20;22.50;100932.00;;;;5031187;28;20191;-55
2023/05/09 00:28:41;;;;;;;5.43;5.03;;;21.80;64.30;22.50;100929.00;;;;5029503;28;20261;-55
2023/05/09 00:31:07;;;;;;;5.40;5.00;;;21.80;64.30;22.50;100927.00;;;;5030790;28;20229;-56
2023/05/09 00:33:32;;;;;;;5.43;5.03;;;21.80;65.00;22.40;100926.00;;;;5029083;28;20186;-56
2023/05/09 00:35:58;;;;;;;5.80;5.30;;;21.70;64.20;22.50;100919.00;;;;5037678;28;20178;-54
2023/05/09 00:38:24;;;;;;;5.87;5.40;;;21.70;64.20;22.40;100920.00;;;;5047572;28;20179;-56
2023/05/09 00:40:49;;;;;;;5.73;5.33;;;21.70;64.20;22.40;100921.00;;;;5027130;28;20183;-55
2023/05/09 00:43:15;;;;;;;5.53;5.13;;;21.70;64.20;22.40;100927.00;;;;5029068;28;20182;-58
2023/05/09 00:45:42;;;;;;;5.27;4.87;;;21.70;64.20;22.40;100933.00;;;;5028922;28;20264;-56
2023/05/09 00:48:08;;;;;;;5.70;5.30;;;21.70;64.20;22.40;100922.00;;;;5027494;28;20182;-57
2023/05/09 00:50:34;;;;;;;5.40;5.00;;;21.70;64.20;22.40;100921.00;;;;5027585;28;20213;-55
2023/05/09 00:53:00;;;;;;;5.50;5.10;;;21.70;64.20;22.40;100922.00;;;;5027591;28;20224;-55
2023/05/09 00:55:26;;;;;;;5.73;5.33;;;21.70;64.20;22.40;100917.00;;;;5027513;28;20210;-56
2023/05/09 00:57:52;;;;;;;5.20;4.80;;;21.60;64.10;22.40;100906.00;;;;5028969;28;20171;-56
2023/05/09 01:00:17;;;;;;;5.40;5.00;;;21.60;64.10;22.40;100903.00;;;;5028776;28;20237;-56
2023/05/09 01:02:47;;;;;;;5.40;5.00;;;21.60;64.10;22.30;100897.00;;;;5032038;28;20246;-56
2023/05/09 01:05:12;;;;;;;5.40;5.00;;;21.60;64.10;22.30;100903.00;;;;5030218;28;20560;-56
2023/05/09 01:08:09;;;;;;;5.50;5.10;;;21.60;64.10;22.30;100909.00;;;;5027780;28;20209;-56
2023/05/09 01:10:44;;;;;;;5.10;4.80;;;21.60;64.20;22.30;100903.00;;;;5027617;28;20206;-55
2023/05/09 01:14:03;;;;;;;5.30;4.90;;;21.60;64.20;22.30;100893.00;;;;5026900;28;20197;-56
2023/05/09 01:17:02;;;;;;;4.90;4.60;;;21.60;64.20;22.30;100894.00;;;;5026389;28;20201;-55
2023/05/09 01:19:57;;;;;;;5.00;4.60;;;21.60;64.30;22.30;100880.00;;;;5028547;28;20304;-55
2023/05/09 01:22:29;;;;;;;5.23;4.83;;;21.60;64.30;22.20;100893.00;;;;5028069;28;20309;-56
2023/05/09 01:25:20;;;;;;;4.60;4.30;;;21.60;64.30;22.20;100890.00;;;;5027212;28;20628;-56
2023/05/09 01:28:25;;;;;;;4.87;4.40;;;21.60;64.50;22.30;100888.00;;;;5028257;28;20274;-55
2023/05/09 01:30:50;;;;;;;4.60;4.20;;;21.60;64.60;22.20;100875.00;;;;5026909;28;20235;-56
2023/05/09 01:33:17;;;;;;;4.60;4.27;;;21.60;64.60;22.20;100883.00;;;;5026891;28;20179;-56
2023/05/09 01:35:46;;;;;;;4.70;4.40;;;21.60;64.60;22.20;100877.00;;;;5007099;28;20649;-56
2023/05/09 01:38:14;;;;;;;5.00;4.60;;;21.60;64.70;22.20;100865.00;;;;5026228;28;20645;-55
2023/05/09 01:40:40;;;;;;;4.97;4.57;;;21.60;65.50;22.20;100871.00;;;;5026783;28;20691;-56
2023/05/09 01:43:08;;;;;;;4.57;4.27;;;21.50;64.60;22.20;100865.00;;;;5026831;28;20214;-55
2023/05/09 01:45:34;;;;;;;4.60;4.30;;;21.50;64.70;22.20;100851.00;;;;5027036;28;20179;-56
2023/05/09 01:48:00;;;;;;;4.83;4.53;;;21.50;64.60;22.20;100879.00;;;;5026439;28;20196;-57
2023/05/09 01:50:26;;;;;;;4.43;4.13;;;21.50;64.60;22.20;100875.00;;;;5026405;28;20255;-56
2023/05/09 01:52:55;;;;;;;4.77;4.37;;;21.50;64.90;22.20;100864.00;;;;5026443;28;20192;-56
2023/05/09 01:55:24;;;;;;;4.60;4.20;;;21.50;64.60;22.10;100862.00;;;;5026336;28;20207;-56
2023/05/09 01:57:50;;;;;;;4.27;3.90;;;21.50;64.70;22.10;100869.00;;;;5010371;28;20805;-57
2023/05/09 02:00:15;;;;;;;4.37;4.07;;;21.50;64.70;22.10;100867.00;;;;5026898;28;20197;-56
2023/05/09 02:02:41;;;;;;;4.40;4.10;;;21.40;64.50;22.10;100877.00;;;;5026770;28;20229;-54
2023/05/09 02:05:08;;;;;;;4.63;4.27;;;21.50;64.60;22.10;100879.00;;;;5026836;28;20179;-56
2023/05/09 02:07:34;;;;;;;4.20;3.90;;;21.50;64.70;22.10;100874.00;;;;5026868;28;20201;-55
2023/05/09 02:10:00;;;;;;;4.93;4.53;;;21.50;64.70;22.10;100866.00;;;;5028044;28;20205;-56
2023/05/09 02:12:26;;;;;;;4.73;4.43;;;21.50;64.60;22.10;100890.00;;;;5028762;28;20320;-56
2023/05/09 02:14:51;;;;;;;4.80;4.47;;;21.40;64.50;22.10;100876.00;;;;5030143;28;20194;-55
2023/05/09 02:17:18;;;;;;;4.80;4.50;;;21.50;64.60;22.10;100874.00;;;;5030330;28;20276;-56
2023/05/09 02:19:43;;;;;;;5.00;4.60;;;21.50;64.60;22.10;100869.00;;;;5031837;28;20659;-56
2023/05/09 02:22:10;;;;;;;5.40;4.97;;;21.40;64.60;22.10;100878.00;;;;5028646;28;20178;-56
2023/05/09 02:24:36;;;;;;;5.13;4.70;;;21.40;64.60;22.10;100805.00;;;;5039639;28;20714;-55
2023/05/09 02:27:03;;;;;;;4.90;4.50;;;21.40;64.60;22.10;100868.00;;;;5038093;28;20191;-56
2023/05/09 02:29:43;;;;;;;4.70;4.40;;;21.40;64.60;22.00;100869.00;;;;5009201;28;20240;-56
2023/05/09 02:32:13;;;;;;;4.90;4.60;;;21.40;64.60;22.00;100803.00;;;;5010247;28;20286;-56
2023/05/09 02:34:38;;;;;;;4.63;4.33;;;21.40;64.60;22.00;100869.00;;;;5028018;28;20199;-58
2023/05/09 02:37:05;;;;;;;5.20;4.80;;;21.40;64.60;22.00;100861.00;;;;5020130;28;20232;-57
2023/05/09 02:39:31;;;;;;;4.80;4.40;;;21.40;64.70;22.00;100858.00;;;;5036828;28;20195;-55
2023/05/09 02:42:10;;;;;;;4.80;4.50;;;21.40;64.70;22.00;100853.00;;;;5040003;28;20178;-55
2023/05/09 02:44:36;;;;;;;5.20;4.80;;;21.40;64.70;22.00;100856.00;;;;5031019;28;20177;-56
2023/05/09 02:47:02;;;;;;;4.80;4.50;;;21.40;64.70;22.00;100859.00;;;;5031019;28;20813;-55
2023/05/09 02:49:27;;;;;;;4.63;4.33;;;21.40;64.70;22.00;100846.00;;;;5030015;28;20200;-56
2023/05/09 02:51:53;;;;;;;4.73;4.43;;;21.40;64.70;22.00;100858.00;;;;5031348;28;20179;-56
2023/05/09 02:54:20;;;;;;;4.83;4.43;;;21.40;64.70;22.00;100856.00;;;;5031022;28;20201;-56
2023/05/09 02:56:46;;;;;;;5.20;4.47;;;21.30;64.70;22.00;100852.00;;;;5030777;28;20588;-56
2023/05/09 02:59:11;;;;;;;4.70;4.40;;;21.30;64.70;22.00;100845.00;;;;5030907;28;20197;-56
2023/05/09 03:01:37;;;;;;;4.70;4.30;;;21.30;64.60;22.00;100843.00;;;;5031241;28;20170;-56
2023/05/09 03:04:03;;;;;;;4.67;4.27;;;21.40;64.70;22.00;100838.00;;;;5030997;28;20323;-56
2023/05/09 03:06:29;;;;;;;5.00;4.60;;;21.30;64.70;22.00;100846.00;;;;5031215;28;20232;-59
2023/05/09 03:08:55;;;;;;;4.87;4.43;;;21.30;64.70;21.90;100846.00;;;;5030830;28;20334;-57
2023/05/09 03:11:21;;;;;;;4.87;4.47;;;21.30;64.70;21.90;100832.00;;;;5030942;28;20741;-58
2023/05/09 03:13:47;;;;;;;4.23;3.93;;;21.30;64.70;21.90;100830.00;;;;5030901;28;20233;-55
2023/05/09 03:16:14;;;;;;;4.50;4.20;;;21.30;64.70;21.90;100833.00;;;;5030908;28;20182;-56
2023/05/09 03:18:39;;;;;;;4.60;4.30;;;21.30;64.70;21.90;100834.00;;;;5030325;28;20798;-56
2023/05/09 03:21:05;;;;;;;5.13;4.73;;;21.30;64.70;21.90;100827.00;;;;5030428;28;20170;-55
2023/05/09 03:23:31;;;;;;;4.50;4.20;;;21.30;64.70;21.90;100830.00;;;;5030727;28;20552;-57
2023/05/09 03:25:57;;;;;;;4.80;4.40;;;21.30;64.80;21.90;100828.00;;;;5030184;28;20177;-56
2023/05/09 03:28:22;;;;;;;5.00;4.60;;;21.30;64.80;21.90;100844.00;;;;5029760;28;20197;-57
2023/05/09 03:30:49;;;;;;;4.80;4.40;;;21.30;65.00;21.90;100827.00;;;;5030429;28;20174;-56
2023/05/09 03:33:15;;;;;;;4.67;4.37;;;21.30;64.90;21.90;100829.00;;;;5031884;28;20191;-55
2023/05/09 03:35:40;;;;;;;4.90;4.50;;;21.30;64.90;21.90;100829.00;;;;5035684;28;20201;-56
2023/05/09 03:38:06;;;;;;;4.97;4.20;;;21.30;65.00;21.90;100827.00;;;;5030799;28;20676;-56
2023/05/09 03:40:32;;;;;;;4.53;4.23;;;21.20;64.80;21.90;100818.00;;;;5030233;28;20669;-56
2023/05/09 03:42:58;;;;;;;4.60;4.30;;;21.20;64.80;21.90;100829.00;;;;5030663;28;20170;-56
2023/05/09 03:45:23;;;;;;;4.97;4.23;;;21.30;64.90;21.90;100843.00;;;;5030160;28;20206;-57
2023/05/09 03:47:49;;;;;;;4.43;4.13;;;21.20;64.80;21.90;100826.00;;;;5031827;28;20642;-55
2023/05/09 03:50:15;;;;;;;4.97;4.50;;;21.20;64.70;21.90;100823.00;;;;5031550;28;20202;-56
2023/05/09 03:52:41;;;;;;;4.57;4.27;;;21.20;64.70;21.90;100812.00;;;;5031576;28;20175;-56
2023/05/09 03:55:07;;;;;;;4.67;4.00;;;21.20;64.70;21.90;100814.00;;;;5024315;28;20877;-56
2023/05/09 03:57:34;;;;;;;4.63;4.23;;;21.20;64.70;21.90;100807.00;;;;5023751;28;20248;-56
2023/05/09 03:59:59;;;;;;;4.57;4.17;;;21.20;64.70;21.80;100800.00;;;;5029714;28;20236;-56
2023/05/09 04:02:25;;;;;;;4.10;3.80;;;21.20;64.70;21.80;100802.00;;;;5029785;28;20909;-56
2023/05/09 04:04:51;;;;;;;4.53;4.13;;;21.20;64.70;21.80;100796.00;;;;5029732;28;20185;-55
2023/05/09 04:07:18;;;;;;;4.37;3.97;;;21.20;64.70;21.80;100783.00;;;;5029088;28;20181;-55
2023/05/09 04:09:44;;;;;;;5.00;4.23;;;21.10;64.50;21.80;100793.00;;;;5029010;28;20244;-58
2023/05/09 04:12:09;;;;;;;7.73;4.67;;;21.10;64.50;21.80;100799.00;;;;5029177;28;20186;-56
2023/05/09 04:14:35;;;;;;;5.97;3.90;;;21.10;64.40;21.80;100783.00;;;;5030523;28;20202;-55
2023/05/09 04:17:01;;;;;;;4.87;4.37;;;21.10;64.50;21.80;100794.00;;;;5028608;28;20182;-56
2023/05/09 04:19:26;;;;;;;4.50;4.03;;;21.20;64.60;21.80;100782.00;;;;5030585;28;20241;-55
2023/05/09 04:21:52;;;;;;;4.17;3.87;;;21.10;64.50;21.80;100781.00;;;;5030554;28;20206;-55
2023/05/09 04:24:18;;;;;;;5.70;3.87;;;21.10;64.50;21.80;100783.00;;;;5030412;28;20186;-56
2023/05/09 04:26:44;;;;;;;4.43;4.00;;;21.10;64.60;21.80;100776.00;;;;5037794;28;20189;-55
2023/05/09 04:29:10;;;;;;;4.97;4.10;;;21.10;64.60;21.80;100781.00;;;;5043480;28;20290;-55
2023/05/09 04:31:36;;;;;;;4.80;4.00;;;21.10;64.70;21.80;100781.00;;;;5031453;28;20257;-56
2023/05/09 04:34:02;;;;;;;4.70;3.80;;;21.10;64.80;21.80;100768.00;;;;5031360;28;20612;-56
2023/05/09 04:36:28;;;;;;;5.10;4.40;;;21.10;64.70;21.70;100766.00;;;;5035084;28;20305;-56
2023/05/09 04:38:53;;;;;;;6.23;4.17;;;21.10;64.80;21.80;100761.00;;;;5039017;28;20197;-55
2023/05/09 04:41:20;;;;;;;7.10;4.30;;;21.10;64.80;21.80;100765.00;;;;5035563;28;20182;-55
2023/05/09 04:43:46;;;;;;;9.40;4.50;;;21.10;64.70;21.70;100762.00;;;;5026967;28;20289;-56
2023/05/09 04:46:11;;;;;;;6.33;4.30;;;21.10;64.80;21.70;100757.00;;;;5017545;28;20190;-56
2023/05/09 04:48:37;;;;;;;8.60;4.40;;;21.10;64.90;21.70;100760.00;;;;5029356;28;20169;-58
2023/05/09 04:51:03;;;;;;;8.20;4.53;;;21.00;64.80;21.70;100752.00;;;;5029878;28;20177;-56
2023/05/09 04:53:29;;;;;;;9.13;4.57;;;21.00;64.80;21.70;100764.00;;;;5029506;28;20554;-56
2023/05/09 04:55:55;;;;;;;5.77;4.63;;;21.00;64.90;21.70;100754.00;;;;5015398;28;20208;-53
2023/05/09 04:58:20;;;;;;;10.37;4.83;;;21.10;65.00;21.70;100749.00;;;;5014680;28;20531;-56
2023/05/09 05:00:46;;;;;;;11.87;4.93;;;21.00;64.90;21.70;100750.00;;;;5028060;28;20236;-55
2023/05/09 05:03:12;;;;;;;6.23;4.83;;;21.00;65.80;21.70;100756.00;;;;5029805;28;20265;-56
2023/05/09 05:05:40;;;;;;;8.30;4.50;;;21.00;65.00;21.70;100747.00;;;;5027702;28;20178;-55
2023/05/09 05:08:06;;;;;;;7.03;5.00;;;21.00;65.00;21.70;100746.00;;;;5028662;28;20217;-56
2023/05/09 05:10:31;;;;;;;8.10;4.60;;;21.00;65.30;21.70;100763.00;;;;5028820;28;20233;-56
2023/05/09 05:12:57;;;;;;;9.63;4.43;;;21.00;65.20;21.70;100751.00;;;;5028361;28;20179;-56
2023/05/09 05:15:23;;;;;;;6.07;4.60;;;21.00;65.30;21.70;100751.00;;;;5029128;28;20527;-57
2023/05/09 05:17:49;;;;;;;11.60;5.17;;;21.00;65.20;21.70;100741.00;;;;5028461;28;20190;-56
2023/05/09 05:20:14;;;;;;;10.23;5.23;;;21.00;65.20;21.70;100747.00;;;;5028173;28;20723;-57
2023/05/09 05:22:40;;;;;;;6.80;4.77;;;21.00;65.20;21.70;100737.00;;;;5029247;28;20190;-57
2023/05/09 05:25:07;;;;;;;8.67;4.60;;;21.00;65.20;21.70;100744.00;;;;5029008;28;20243;-56
2023/05/09 05:27:32;;;;;;;5.17;4.63;;;21.00;65.30;21.70;100750.00;;;;5026915;28;20206;-57
2023/05/09 05:29:58;;;;;;;9.20;4.57;;;21.00;65.30;21.70;100749.00;;;;5029297;28;20203;-56
2023/05/09 05:32:24;;;;;;;7.57;4.57;;;21.00;65.20;21.70;100727.00;;;;5029329;28;20175;-56
2023/05/09 05:34:49;;;;;;;5.70;4.70;;;21.00;65.30;21.70;100742.00;;;;5029004;28;20206;-57
2023/05/09 05:37:16;;;;;;;5.80;4.50;;;21.00;65.30;21.70;100734.00;;;;5028207;28;20182;-56
2023/05/09 05:39:43;;;;;;;5.37;4.50;;;21.00;65.30;21.60;100734.00;;;;5027976;28;20194;-62
2023/05/09 05:42:09;;;;;;;5.80;4.33;;;21.00;65.30;21.60;100718.00;;;;5027487;28;20192;-61
2023/05/09 05:44:34;;;;;;;6.03;4.50;;;20.90;65.20;21.60;100727.00;;;;5029218;28;20557;-58
2023/05/09 05:47:00;;;;;;;5.13;4.63;;;21.00;65.30;21.60;100713.00;;;;5027721;28;20186;-59
2023/05/09 05:49:26;;;;;;;5.37;4.60;;;20.90;65.20;21.60;100716.00;;;;5028969;28;20588;-59
2023/05/09 05:51:51;;;;;;;6.80;4.70;;;20.90;65.20;21.60;100714.00;;;;5028917;28;20596;-60
2023/05/09 05:54:17;;;;;;;5.13;4.60;;;21.00;65.30;21.60;100703.00;;;;5028827;28;20684;-58
2023/05/09 05:56:43;;;;;;;4.83;4.43;;;20.90;65.20;21.60;100713.00;;;;5029228;28;20187;-59
2023/05/09 05:59:08;;;;;;;7.40;4.90;;;20.90;65.20;21.60;100708.00;;;;5028659;28;20208;-59
2023/05/09 06:01:34;;;;;;;4.93;4.20;;;20.90;65.30;21.60;100714.00;;;;5029016;28;20185;-60
2023/05/09 06:04:00;;;;;;;4.60;4.20;;;20.90;65.20;21.60;100708.00;;;;5029372;28;20181;-61
2023/05/09 06:06:26;;;;;;;5.57;4.93;;;21.00;65.40;21.60;100704.00;;;;5028620;28;20186;-59
2023/05/09 06:08:52;;;;;;;5.33;4.33;;;20.90;65.40;21.60;100696.00;;;;5027279;28;20222;-59
2023/05/09 06:11:17;;;;;;;5.20;4.80;;;20.90;65.40;21.60;100695.00;;;;5026260;28;20182;-59
2023/05/09 06:13:43;;;;;;;5.27;4.60;;;20.90;65.40;21.60;100695.00;;;;5028783;28;20209;-59
2023/05/09 06:16:09;;;;;;;5.23;4.40;;;20.90;65.40;21.60;100691.00;;;;5027393;28;20646;-59
2023/05/09 06:18:36;;;;;;;6.13;4.60;;;20.90;65.40;21.60;100692.00;;;;5029960;28;20186;-59
2023/05/09 06:21:03;;;;;;;4.97;4.53;;;20.90;65.80;21.60;100686.00;;;;5035224;28;20181;-60
2023/05/09 06:23:28;;;;;;;5.20;4.70;;;20.90;65.40;21.60;100686.00;;;;5035846;28;20171;-59
2023/05/09 06:25:54;;;;;;;5.27;4.80;;;20.90;65.50;21.60;100676.00;;;;5036438;28;20238;-60
2023/05/09 06:28:20;;;;;;;4.40;4.10;;;20.90;65.40;21.60;100680.00;;;;5035370;28;20590;-59
2023/05/09 06:30:46;;;;;;;5.10;4.47;;;20.90;65.40;21.50;100690.00;;;;5048268;28;20192;-60
2023/05/09 06:33:11;;;;;;;4.83;4.43;;;20.90;65.40;21.60;100680.00;;;;5035322;28;20215;-60
2023/05/09 06:35:37;;;;;;;5.50;4.47;;;20.90;65.50;21.60;100681.00;;;;5031057;28;20210;-61
2023/05/09 06:38:03;;;;;;;6.07;4.53;;;20.90;65.50;21.60;100680.00;;;;5031015;28;20179;-59
2023/05/09 06:40:29;;;;;;;5.03;4.53;;;20.90;65.60;21.60;100679.00;;;;5031123;28;20202;-60
2023/05/09 06:42:54;;;;;;;5.60;4.90;;;20.90;65.60;21.60;100671.00;;;;5031608;28;20188;-62
2023/05/09 06:45:20;;;;;;;5.60;4.87;;;20.90;65.60;21.60;100667.00;;;;5053964;28;20589;-53
2023/05/09 06:47:46;;;;;;;4.80;4.40;;;20.90;65.90;21.60;100670.00;;;;5032638;28;20178;-59
2023/05/09 06:50:12;;;;;;;5.10;4.70;;;20.90;65.80;21.60;100665.00;;;;5031344;28;20240;-58
2023/05/09 06:52:37;;;;;;;5.90;4.80;;;20.90;65.80;21.60;100656.00;;;;5023660;28;20181;-58
2023/05/09 06:55:03;;;;;;;8.17;4.50;;;20.90;65.90;21.60;100663.00;;;;5031826;28;20234;-58
2023/05/09 06:57:29;;;;;;;5.97;4.87;;;20.90;66.00;21.70;100656.00;;;;5031522;28;20167;-58
2023/05/09 06:59:55;;;;;;;5.30;4.50;;;20.90;66.00;21.70;100649.00;;;;5034581;28;20208;-58
2023/05/09 07:02:21;;;;;;;6.33;4.50;;;20.90;66.00;21.60;100646.00;;;;5039967;28;20556;-61
2023/05/09 07:04:46;;;;;;;6.73;4.50;;;20.90;66.00;21.70;100645.00;;;;5033486;28;20175;-58
2023/05/09 07:07:12;;;;;;;4.80;4.30;;;20.90;66.00;21.70;100649.00;;;;5030850;28;20181;-58
2023/05/09 07:09:38;;;;;;;4.53;4.13;;;20.90;66.00;21.70;100640.00;;;;5031679;28;20229;-58
2023/05/09 07:12:04;;;;;;;4.83;4.33;;;20.90;66.10;21.70;100635.00;;;;5030833;28;20190;-58
2023/05/09 07:14:30;;;;;;;4.67;4.27;;;20.90;66.00;21.70;100629.00;;;;5031751;28;20198;-59
2023/05/09 07:16:55;;;;;;;5.63;4.37;;;20.90;66.10;21.70;100628.00;;;;5030732;28;20683;-59
2023/05/09 07:19:21;;;;;;;5.20;4.20;;;20.90;66.00;21.70;100627.00;;;;5031198;28;20899;-61
2023/05/09 07:21:47;;;;;;;4.37;4.07;;;20.90;66.00;21.70;100624.00;;;;5030975;28;20185;-59
2023/05/09 07:24:13;;;;;;;4.27;3.87;;;20.90;66.00;21.70;100620.00;;;;5029495;28;20203;-59
2023/05/09 07:26:38;;;;;;;4.90;4.50;;;20.90;66.80;21.70;100618.00;;;;5024433;28;20190;-61
2023/05/09 07:29:04;;;;;;;4.70;4.30;;;20.90;66.10;21.70;100607.00;;;;5030001;28;20203;-59
2023/05/09 07:31:30;;;;;;;4.50;4.10;;;20.90;66.20;21.70;100604.00;;;;5031262;28;20177;-59
2023/05/09 07:33:55;;;;;;;6.83;4.30;;;20.90;66.10;21.70;100608.00;;;;5030523;28;20177;-59
2023/05/09 07:36:21;;;;;;;4.87;4.47;;;20.90;66.10;21.70;100616.00;;;;5030751;28;20178;-59
2023/05/09 07:38:49;;;;;;;5.40;4.57;;;20.90;66.20;21.80;100602.00;;;;5030726;28;20201;-58
2023/05/09 07:41:15;;;;;;;4.43;4.00;;;20.90;66.10;21.70;100616.00;;;;5030667;28;20176;-59
2023/05/09 07:43:41;;;;;;;4.50;4.03;;;20.90;66.20;21.70;100604.00;;;;5030854;28;20181;-60
2023/05/09 07:46:07;;;;;;;4.47;4.07;;;20.90;66.20;21.70;100605.00;;;;5031307;28;20174;-58
2023/05/09 07:48:32;;;;;;;4.97;4.47;;;20.90;66.20;21.80;100598.00;;;;5030608;28;20170;-57
2023/05/09 07:50:58;;;;;;;4.33;4.03;;;20.90;67.00;21.80;100596.00;;;;5030586;28;20244;-60
2023/05/09 07:53:24;;;;;;;4.23;3.90;;;20.90;66.20;21.80;100594.00;;;;5030341;28;20179;-60
2023/05/09 07:55:49;;;;;;;4.70;4.40;;;20.90;66.20;21.80;100592.00;;;;5030952;28;20279;-58
2023/05/09 07:58:16;;;;;;;4.10;3.80;;;20.90;66.30;21.80;100599.00;;;;5030381;28;20212;-59
2023/05/09 08:00:42;;;;;;;4.47;4.07;;;20.90;66.30;21.80;100590.00;;;;5029719;28;20699;-58
2023/05/09 08:03:07;;;;;;;4.23;3.93;;;20.90;66.30;21.80;100579.00;;;;5027229;28;20210;-59
2023/05/09 08:05:33;;;;;;;4.27;3.97;;;20.90;66.30;21.80;100579.00;;;;5020140;28;20186;-58
2023/05/09 08:07:59;;;;;;;4.53;4.13;;;20.90;66.30;21.80;100577.00;;;;5019659;28;20182;-58
2023/05/09 08:10:25;;;;;;;4.53;4.20;;;20.90;66.40;21.80;100568.00;;;;5030489;28;20196;-58
2023/05/09 08:12:51;;;;;;;4.13;3.83;;;20.90;66.40;21.80;100578.00;;;;5030585;28;20795;-59
2023/05/09 08:15:17;;;;;;;5.13;4.10;;;20.90;66.40;21.80;100570.00;;;;5028856;28;20193;-58
2023/05/09 08:17:42;;;;;;;4.00;3.73;;;20.90;66.40;21.80;100557.00;;;;5024032;28;20171;-59
2023/05/09 08:20:10;;;;;;;4.70;4.30;;;20.90;67.30;21.80;100563.00;;;;5018294;28;20250;-59
2023/05/09 08:22:38;;;;;;;4.60;4.20;;;20.90;66.50;21.80;100552.00;;;;5028139;28;20186;-60
2023/05/09 08:25:05;;;;;;;4.57;4.17;;;20.90;66.50;21.80;100555.00;;;;5029575;28;20721;-61
2023/05/09 08:27:31;;;;;;;4.20;3.80;;;20.90;66.60;21.80;100540.00;;;;5029262;28;20189;-58
2023/05/09 08:29:57;;;;;;;4.40;4.10;;;20.90;66.60;21.80;100540.00;;;;5016411;28;20752;-61
2023/05/09 08:32:22;;;;;;;4.30;4.00;;;20.90;66.60;21.80;100535.00;;;;5019230;28;20187;-62
2023/05/09 08:34:48;;;;;;;4.30;3.90;;;20.90;66.70;21.80;100547.00;;;;5048045;28;20193;-57
2023/05/09 08:37:15;;;;;;;4.73;4.20;;;20.90;67.10;21.80;100534.00;;;;5033869;28;20206;-56
2023/05/09 08:39:41;;;;;;;4.43;4.03;;;20.90;67.10;21.80;100534.00;;;;5032348;28;20195;-56
2023/05/09 08:42:06;;;;;;;4.00;3.70;;;20.90;67.10;21.80;100524.00;;;;5029906;28;20177;-56
2023/05/09 08:44:32;;;;;;;4.13;3.83;;;20.90;67.40;21.80;100534.00;;;;5028497;28;20205;-57
2023/05/09 08:47:02;;;;;;;4.40;4.00;;;21.00;67.30;21.80;100522.00;;;;5029657;28;20321;-57
2023/05/09 08:49:28;;;;;;;5.43;4.10;;;21.00;67.50;21.80;100446.00;;;;5034385;28;20218;-58
2023/05/09 08:51:55;;;;;;;4.10;3.80;;;21.00;67.70;21.90;100515.00;;;;5010561;28;20187;-58
2023/05/09 08:54:23;;;;;;;4.50;4.00;;;21.00;67.70;21.90;100511.00;;;;5005929;28;20572;-59
2023/05/09 08:56:49;;;;;;;3.97;3.63;;;21.00;67.60;21.90;100498.00;;;;5009885;28;20606;-58
2023/05/09 08:59:16;;;;;;;4.07;3.77;;;21.00;67.70;21.90;100506.00;;;;5011798;28;20200;-61
2023/05/09 09:01:41;;;;;;;4.27;3.87;;;21.00;67.70;21.90;100509.00;;;;5026202;28;20171;-57
2023/05/09 09:04:07;;;;;;;4.10;3.80;;;21.00;67.70;21.90;100507.00;;;;5027104;28;20236;-57
2023/05/09 09:06:34;;;;;;;3.83;3.53;;;21.00;67.80;21.90;100509.00;;;;5025254;28;20190;-58
2023/05/09 09:09:00;;;;;;;4.00;3.70;;;21.00;67.80;22.00;100495.00;;;;5029198;28;20562;-57
2023/05/09 09:11:27;;;;;;;4.00;3.70;;;21.00;67.80;22.00;100487.00;;;;5024706;28;20201;-57
2023/05/09 09:13:53;;;;;;;5.17;3.73;;;21.10;67.80;22.00;100489.00;;;;5023803;28;20665;-57
2023/05/09 09:16:21;;;;;;;4.00;3.70;;;21.10;67.80;22.00;100471.00;;;;5023156;28;20192;-58
2023/05/09 09:18:46;;;;;;;4.30;3.90;;;21.10;67.80;22.00;100472.00;;;;5011215;28;20229;-58
2023/05/09 09:21:15;;;;;;;6.77;4.03;;;21.10;68.10;22.00;100449.00;;;;5017753;28;20207;-58
2023/05/09 09:23:42;;;;;;;4.60;3.70;;;21.10;68.10;22.00;100475.00;;;;5027802;28;20639;-58
2023/05/09 09:26:08;;;;;;;5.07;3.73;;;21.10;68.10;22.10;100475.00;;;;5033124;28;20189;-58
2023/05/09 09:28:34;;;;;;;4.00;3.70;;;21.10;68.00;22.10;100470.00;;;;5029731;28;20199;-58
2023/05/09 09:31:00;;;;;;;5.60;3.53;;;21.10;67.90;22.10;100474.00;;;;5027856;28;20209;-59
2023/05/09 09:33:26;;;;;;;3.97;3.67;;;21.10;67.90;22.10;100466.00;;;;5028804;28;20193;-59
2023/05/09 09:35:53;;;;;;;3.80;3.50;;;21.10;68.00;22.10;100464.00;;;;5028205;28;20197;-58
2023/05/09 09:38:20;;;;;;;3.67;3.37;;;21.10;68.00;22.10;100450.00;;;;5026255;28;20194;-58
2023/05/09 09:40:55;;;;;;;5.07;3.30;;;21.10;68.10;22.10;100462.00;;;;5029217;28;20248;-59
2023/05/09 09:43:30;;;;;;;3.97;3.57;;;21.10;68.10;22.20;100457.00;;;;5027279;28;20177;-58
2023/05/09 09:45:56;;;;;;;5.30;3.40;;;21.10;68.20;22.20;100445.00;;;;5028268;28;20181;-58
2023/05/09 09:48:25;;;;;;;4.07;3.63;;;21.10;68.20;22.20;100443.00;;;;5027576;28;21049;-58
2023/05/09 09:50:55;;;;;;;7.67;3.70;;;21.10;68.40;22.20;100459.00;;;;5028725;28;20185;-57
2023/05/09 09:53:22;;;;;;;11.17;4.17;;;21.20;68.50;22.20;100447.00;;;;5030700;28;20201;-57
2023/05/09 09:55:50;;;;;;;9.87;3.90;;;21.10;68.40;22.20;100443.00;;;;5032799;28;20212;-58
2023/05/09 09:58:17;;;;;;;9.60;3.70;;;21.20;68.70;22.20;100449.00;;;;5031562;28;20177;-58
2023/05/09 10:00:45;;;;;;;10.90;3.90;;;21.20;69.00;22.20;100437.00;;;;5032858;28;20197;-59
2023/05/09 10:03:15;;;;;;;7.93;4.00;;;21.20;68.90;22.30;100434.00;;;;5031852;28;20607;-60
2023/05/09 10:05:40;;;;;;;8.17;4.00;;;21.30;69.10;22.30;100427.00;;;;5032503;28;20209;-60
2023/05/09 10:08:08;;;;;;;7.57;3.73;;;21.30;69.20;22.30;100426.00;;;;5029862;28;20248;-58
2023/05/09 10:10:34;;;;;;;8.17;3.30;;;21.30;70.20;22.30;100428.00;;;;5030621;28;20206;-58
2023/05/09 10:13:10;;;;;;;5.10;3.37;;;21.40;69.40;22.40;100426.00;;;;5032257;28;20222;-57
2023/05/09 10:15:36;;;;;;;10.53;3.30;;;21.40;69.40;22.40;100420.00;;;;5030703;28;20619;-58
2023/05/09 10:18:03;;;;;;;6.93;3.30;;;21.40;69.30;22.40;100425.00;;;;5031075;28;20258;-58
2023/05/09 10:20:29;;;;;;;7.03;3.53;;;21.40;69.60;22.40;100421.00;;;;5031977;28;20624;-57
2023/05/09 10:22:57;;;;;;;3.77;3.37;;;21.40;69.40;22.40;100420.00;;;;5031216;28;20782;-58
2023/05/09 10:25:52;;;;;;;7.77;3.60;;;21.40;69.40;22.40;100408.00;;;;5034682;28;20188;-58
2023/05/09 10:28:22;;;;;;;6.80;3.53;;;21.40;69.60;22.40;100403.00;;;;5036892;28;20190;-57
2023/05/09 10:31:00;;;;;;;8.63;3.10;;;21.40;69.50;22.50;100405.00;;;;5037182;28;20199;-56
2023/05/09 10:33:47;;;;;;;5.77;3.37;;;21.40;69.50;22.50;100405.00;;;;5031619;28;20661;-57
2023/05/09 10:36:19;;;;;;;4.20;3.10;;;21.40;69.70;22.50;100399.00;;;;5030677;28;20199;-58
2023/05/09 10:38:46;;;;;;;6.33;3.40;;;21.40;69.70;22.50;100371.00;;;;5033722;28;20160;-59
2023/05/09 10:41:12;;;;;;;3.47;3.17;;;21.40;69.90;22.50;100385.00;;;;5043331;28;20211;-57
2023/05/09 10:43:38;;;;;;;3.97;2.90;;;21.40;69.90;22.50;100386.00;;;;5019268;28;20456;-59
2023/05/09 10:46:04;;;;;;;4.83;3.07;;;21.40;69.90;22.60;100387.00;;;;4994325;28;20191;-57
2023/05/09 10:48:31;;;;;;;3.30;3.00;;;21.40;69.90;22.60;100373.00;;;;5015469;28;20179;-59